3MA1 weather

Marlborough Hospital Heliport
Marlborough, Massachusetts, United States

Public forecast

Using degrees Fahrenheit for public forecast. Weather courtesy of forecast.io.

METAR (pilot weather report)

Closest report is Laurence G Hanscom Field, 13.6 nm (25.2 km) ENE. Retrieved 2019/07/21 05:56 UTC (15 minutes ago):

KBED 210556Z AUTO 23005KT 10SM CLR 28/19 A2971 RMK AO2 SLP069 T02830189 10328 20283 55003

TAF (pilot weather forecast)

Closest forecast is Laurence G Hanscom Field, 13.6 nm (25.2 km) ENE. Retrieved 2019/07/21 06:42 UTC (0 seconds ago):

TAF KBED 210540Z 2106/2206 24006KT P6SM BKN250 FM211500 27009KT P6SM SCT200 FM211700 27010G19KT P6SM SCT200 FM211800 27012G22KT P6SM FEW250 FM220000 28009KT P6SM FEW250 FM220500 30005KT P6SM SCT120